sensor_id;sensor_type;location;lat;lon;timestamp;P1;durP1;ratioP1;P2;durP2;ratioP2
47555;SDS011;33291;46.222;26.460;2023-03-01T00:01:06;19.13;;;10.60;;
47555;SDS011;33291;46.222;26.460;2023-03-01T00:03:34;19.23;;;10.77;;
47555;SDS011;33291;46.222;26.460;2023-03-01T00:06:00;19.60;;;10.18;;
47555;SDS011;33291;46.222;26.460;2023-03-01T00:08:26;22.30;;;11.77;;
47555;SDS011;33291;46.222;26.460;2023-03-01T00:11:09;19.73;;;10.50;;
47555;SDS011;33291;46.222;26.460;2023-03-01T00:13:40;19.30;;;10.60;;
47555;SDS011;33291;46.222;26.460;2023-03-01T00:16:08;21.08;;;11.25;;
47555;SDS011;33291;46.222;26.460;2023-03-01T00:18:36;19.63;;;10.65;;
47555;SDS011;33291;46.222;26.460;2023-03-01T00:21:02;19.95;;;10.88;;
47555;SDS011;33291;46.222;26.460;2023-03-01T00:23:28;20.77;;;9.68;;
47555;SDS011;33291;46.222;26.460;2023-03-01T00:25:53;19.45;;;9.40;;
47555;SDS011;33291;46.222;26.460;2023-03-01T00:28:19;18.58;;;10.75;;
47555;SDS011;33291;46.222;26.460;2023-03-01T00:30:45;25.77;;;12.85;;
47555;SDS011;33291;46.222;26.460;2023-03-01T00:33:11;27.48;;;15.55;;
47555;SDS011;33291;46.222;26.460;2023-03-01T00:35:37;23.90;;;11.48;;
47555;SDS011;33291;46.222;26.460;2023-03-01T00:38:03;22.45;;;10.98;;
47555;SDS011;33291;46.222;26.460;2023-03-01T00:40:29;19.67;;;10.38;;
47555;SDS011;33291;46.222;26.460;2023-03-01T00:42:57;18.15;;;9.32;;
47555;SDS011;33291;46.222;26.460;2023-03-01T00:45:23;21.80;;;10.90;;
47555;SDS011;33291;46.222;26.460;2023-03-01T00:47:49;20.33;;;10.20;;
47555;SDS011;33291;46.222;26.460;2023-03-01T00:50:16;19.60;;;10.75;;
47555;SDS011;33291;46.222;26.460;2023-03-01T00:52:42;18.98;;;9.70;;
47555;SDS011;33291;46.222;26.460;2023-03-01T00:55:08;25.38;;;10.25;;
47555;SDS011;33291;46.222;26.460;2023-03-01T00:57:34;18.73;;;10.27;;
47555;SDS011;33291;46.222;26.460;2023-03-01T00:59:59;17.30;;;9.75;;
47555;SDS011;33291;46.222;26.460;2023-03-01T01:02:25;19.95;;;10.65;;
47555;SDS011;33291;46.222;26.460;2023-03-01T01:04:50;19.42;;;10.20;;
47555;SDS011;33291;46.222;26.460;2023-03-01T01:07:16;19.10;;;11.07;;
47555;SDS011;33291;46.222;26.460;2023-03-01T01:09:42;21.42;;;11.45;;
47555;SDS011;33291;46.222;26.460;2023-03-01T01:12:08;23.90;;;10.98;;
47555;SDS011;33291;46.222;26.460;2023-03-01T01:14:33;16.63;;;9.85;;
47555;SDS011;33291;46.222;26.460;2023-03-01T01:16:59;21.25;;;10.55;;
47555;SDS011;33291;46.222;26.460;2023-03-01T01:19:25;20.02;;;10.43;;
47555;SDS011;33291;46.222;26.460;2023-03-01T01:21:51;19.23;;;10.10;;
47555;SDS011;33291;46.222;26.460;2023-03-01T01:24:17;22.17;;;10.32;;
47555;SDS011;33291;46.222;26.460;2023-03-01T01:26:43;20.05;;;10.27;;
47555;SDS011;33291;46.222;26.460;2023-03-01T01:29:09;20.17;;;10.40;;
47555;SDS011;33291;46.222;26.460;2023-03-01T01:31:36;18.08;;;9.70;;
47555;SDS011;33291;46.222;26.460;2023-03-01T01:34:04;25.30;;;12.10;;
47555;SDS011;33291;46.222;26.460;2023-03-01T01:36:32;65.55;;;23.17;;
47555;SDS011;33291;46.222;26.460;2023-03-01T01:38:58;129.32;;;50.65;;
47555;SDS011;33291;46.222;26.460;2023-03-01T01:41:25;141.07;;;53.83;;
47555;SDS011;33291;46.222;26.460;2023-03-01T01:46:38;47.20;;;22.15;;
47555;SDS011;33291;46.222;26.460;2023-03-01T01:49:35;34.40;;;18.80;;
47555;SDS011;33291;46.222;26.460;2023-03-01T01:52:16;25.92;;;12.93;;
47555;SDS011;33291;46.222;26.460;2023-03-01T01:57:21;32.00;;;14.25;;
47555;SDS011;33291;46.222;26.460;2023-03-01T01:59:52;29.23;;;14.05;;
47555;SDS011;33291;46.222;26.460;2023-03-01T02:02:22;27.30;;;13.80;;
47555;SDS011;33291;46.222;26.460;2023-03-01T02:04:49;24.95;;;12.57;;
47555;SDS011;33291;46.222;26.460;2023-03-01T02:07:21;22.80;;;11.82;;
47555;SDS011;33291;46.222;26.460;2023-03-01T02:09:49;22.02;;;11.75;;
47555;SDS011;33291;46.222;26.460;2023-03-01T02:12:18;21.88;;;12.23;;
47555;SDS011;33291;46.222;26.460;2023-03-01T02:14:46;22.55;;;11.48;;
47555;SDS011;33291;46.222;26.460;2023-03-01T02:17:12;21.80;;;11.70;;
47555;SDS011;33291;46.222;26.460;2023-03-01T02:22:38;23.98;;;12.55;;
47555;SDS011;33291;46.222;26.460;2023-03-01T02:30:38;23.67;;;13.23;;
47555;SDS011;33291;46.222;26.460;2023-03-01T02:33:24;26.50;;;13.50;;
47555;SDS011;33291;46.222;26.460;2023-03-01T02:35:51;26.48;;;13.82;;
47555;SDS011;33291;46.222;26.460;2023-03-01T02:38:18;29.20;;;13.45;;
47555;SDS011;33291;46.222;26.460;2023-03-01T02:40:44;25.92;;;12.35;;
47555;SDS011;33291;46.222;26.460;2023-03-01T02:43:10;23.77;;;12.18;;
47555;SDS011;33291;46.222;26.460;2023-03-01T02:45:38;24.48;;;12.18;;
47555;SDS011;33291;46.222;26.460;2023-03-01T02:48:13;26.95;;;13.25;;
47555;SDS011;33291;46.222;26.460;2023-03-01T02:54:07;26.83;;;13.52;;
47555;SDS011;33291;46.222;26.460;2023-03-01T02:56:38;23.25;;;12.60;;
47555;SDS011;33291;46.222;26.460;2023-03-01T02:59:04;25.20;;;13.07;;
47555;SDS011;33291;46.222;26.460;2023-03-01T03:01:30;26.42;;;13.68;;
47555;SDS011;33291;46.222;26.460;2023-03-01T03:04:05;23.13;;;13.18;;
47555;SDS011;33291;46.222;26.460;2023-03-01T03:06:32;26.10;;;13.32;;
47555;SDS011;33291;46.222;26.460;2023-03-01T03:08:59;28.73;;;12.80;;
47555;SDS011;33291;46.222;26.460;2023-03-01T03:11:24;27.10;;;13.93;;
47555;SDS011;33291;46.222;26.460;2023-03-01T03:13:50;31.85;;;14.20;;
47555;SDS011;33291;46.222;26.460;2023-03-01T03:16:17;25.35;;;13.85;;
47555;SDS011;33291;46.222;26.460;2023-03-01T03:18:43;30.77;;;16.20;;
47555;SDS011;33291;46.222;26.460;2023-03-01T03:21:08;29.23;;;15.30;;
47555;SDS011;33291;46.222;26.460;2023-03-01T03:23:36;26.45;;;14.50;;
47555;SDS011;33291;46.222;26.460;2023-03-01T03:26:02;26.25;;;14.05;;
47555;SDS011;33291;46.222;26.460;2023-03-01T03:28:31;29.20;;;13.43;;
47555;SDS011;33291;46.222;26.460;2023-03-01T03:30:58;31.83;;;14.60;;
47555;SDS011;33291;46.222;26.460;2023-03-01T03:33:28;28.50;;;12.85;;
47555;SDS011;33291;46.222;26.460;2023-03-01T03:35:56;30.75;;;14.45;;
47555;SDS011;33291;46.222;26.460;2023-03-01T03:38:22;25.67;;;14.23;;
47555;SDS011;33291;46.222;26.460;2023-03-01T03:40:52;33.67;;;15.93;;
47555;SDS011;33291;46.222;26.460;2023-03-01T03:43:29;26.05;;;15.13;;
47555;SDS011;33291;46.222;26.460;2023-03-01T03:45:57;27.88;;;14.27;;
47555;SDS011;33291;46.222;26.460;2023-03-01T03:48:23;27.00;;;14.73;;
47555;SDS011;33291;46.222;26.460;2023-03-01T03:50:53;29.25;;;14.77;;
47555;SDS011;33291;46.222;26.460;2023-03-01T03:53:20;31.38;;;14.23;;
47555;SDS011;33291;46.222;26.460;2023-03-01T03:55:47;26.65;;;13.68;;
47555;SDS011;33291;46.222;26.460;2023-03-01T03:58:16;27.85;;;13.63;;
47555;SDS011;33291;46.222;26.460;2023-03-01T04:00:44;25.60;;;13.35;;
47555;SDS011;33291;46.222;26.460;2023-03-01T04:03:12;27.77;;;13.00;;
47555;SDS011;33291;46.222;26.460;2023-03-01T04:05:39;23.05;;;12.55;;
47555;SDS011;33291;46.222;26.460;2023-03-01T04:08:05;23.70;;;14.13;;
47555;SDS011;33291;46.222;26.460;2023-03-01T04:10:41;25.42;;;13.27;;
47555;SDS011;33291;46.222;26.460;2023-03-01T04:13:12;27.08;;;12.70;;
47555;SDS011;33291;46.222;26.460;2023-03-01T04:15:40;21.83;;;12.40;;
47555;SDS011;33291;46.222;26.460;2023-03-01T04:18:06;25.63;;;13.88;;
47555;SDS011;33291;46.222;26.460;2023-03-01T04:20:33;26.00;;;13.77;;
47555;SDS011;33291;46.222;26.460;2023-03-01T04:23:01;24.83;;;14.07;;
47555;SDS011;33291;46.222;26.460;2023-03-01T04:25:36;23.27;;;11.77;;
47555;SDS011;33291;46.222;26.460;2023-03-01T04:28:03;21.75;;;12.68;;
47555;SDS011;33291;46.222;26.460;2023-03-01T04:30:28;22.58;;;11.55;;
47555;SDS011;33291;46.222;26.460;2023-03-01T04:32:54;20.98;;;10.25;;
47555;SDS011;33291;46.222;26.460;2023-03-01T04:35:19;20.83;;;10.68;;
47555;SDS011;33291;46.222;26.460;2023-03-01T04:37:45;17.63;;;10.18;;
47555;SDS011;33291;46.222;26.460;2023-03-01T04:40:11;20.33;;;11.50;;
47555;SDS011;33291;46.222;26.460;2023-03-01T04:42:41;23.63;;;11.05;;
47555;SDS011;33291;46.222;26.460;2023-03-01T04:45:07;25.50;;;12.18;;
47555;SDS011;33291;46.222;26.460;2023-03-01T04:47:38;22.27;;;11.60;;
47555;SDS011;33291;46.222;26.460;2023-03-01T04:50:05;23.70;;;11.77;;
47555;SDS011;33291;46.222;26.460;2023-03-01T04:52:31;23.20;;;11.52;;
47555;SDS011;33291;46.222;26.460;2023-03-01T04:54:57;24.15;;;12.60;;
47555;SDS011;33291;46.222;26.460;2023-03-01T04:57:22;20.67;;;12.05;;
47555;SDS011;33291;46.222;26.460;2023-03-01T04:59:48;26.80;;;12.63;;
47555;SDS011;33291;46.222;26.460;2023-03-01T05:02:13;25.55;;;13.20;;
47555;SDS011;33291;46.222;26.460;2023-03-01T05:04:38;23.98;;;12.55;;
47555;SDS011;33291;46.222;26.460;2023-03-01T05:07:04;21.75;;;12.07;;
47555;SDS011;33291;46.222;26.460;2023-03-01T05:09:29;24.85;;;12.48;;
47555;SDS011;33291;46.222;26.460;2023-03-01T05:11:55;21.17;;;11.73;;
47555;SDS011;33291;46.222;26.460;2023-03-01T05:14:20;21.58;;;11.68;;
47555;SDS011;33291;46.222;26.460;2023-03-01T05:16:46;22.55;;;11.20;;
47555;SDS011;33291;46.222;26.460;2023-03-01T05:19:12;20.45;;;10.80;;
47555;SDS011;33291;46.222;26.460;2023-03-01T05:21:40;16.50;;;9.60;;
47555;SDS011;33291;46.222;26.460;2023-03-01T05:24:26;18.98;;;10.63;;
47555;SDS011;33291;46.222;26.460;2023-03-01T05:26:53;17.27;;;9.90;;
47555;SDS011;33291;46.222;26.460;2023-03-01T05:29:19;22.77;;;11.05;;
47555;SDS011;33291;46.222;26.460;2023-03-01T05:31:53;20.70;;;10.05;;
47555;SDS011;33291;46.222;26.460;2023-03-01T05:34:33;30.60;;;16.60;;
47555;SDS011;33291;46.222;26.460;2023-03-01T05:37:00;37.13;;;19.67;;
47555;SDS011;33291;46.222;26.460;2023-03-01T05:39:27;40.33;;;21.63;;
47555;SDS011;33291;46.222;26.460;2023-03-01T05:41:58;50.55;;;23.33;;
47555;SDS011;33291;46.222;26.460;2023-03-01T05:44:25;51.78;;;23.85;;
47555;SDS011;33291;46.222;26.460;2023-03-01T05:46:51;49.78;;;27.05;;
47555;SDS011;33291;46.222;26.460;2023-03-01T05:49:17;126.43;;;59.63;;
47555;SDS011;33291;46.222;26.460;2023-03-01T05:51:46;64.75;;;33.13;;
47555;SDS011;33291;46.222;26.460;2023-03-01T05:54:14;65.25;;;32.33;;
47555;SDS011;33291;46.222;26.460;2023-03-01T05:56:39;42.17;;;23.25;;
47555;SDS011;33291;46.222;26.460;2023-03-01T05:59:05;38.63;;;18.67;;
47555;SDS011;33291;46.222;26.460;2023-03-01T06:01:34;34.55;;;19.45;;
47555;SDS011;33291;46.222;26.460;2023-03-01T06:04:00;36.20;;;18.73;;
47555;SDS011;33291;46.222;26.460;2023-03-01T06:06:26;34.45;;;17.98;;
47555;SDS011;33291;46.222;26.460;2023-03-01T06:08:52;33.85;;;16.10;;
47555;SDS011;33291;46.222;26.460;2023-03-01T06:11:18;36.25;;;16.70;;
47555;SDS011;33291;46.222;26.460;2023-03-01T06:13:45;29.05;;;15.80;;
47555;SDS011;33291;46.222;26.460;2023-03-01T06:16:11;31.80;;;16.27;;
47555;SDS011;33291;46.222;26.460;2023-03-01T06:18:37;29.77;;;17.08;;
47555;SDS011;33291;46.222;26.460;2023-03-01T06:21:03;28.65;;;15.05;;
47555;SDS011;33291;46.222;26.460;2023-03-01T06:23:30;27.10;;;14.80;;
47555;SDS011;33291;46.222;26.460;2023-03-01T06:25:56;29.15;;;15.95;;
47555;SDS011;33291;46.222;26.460;2023-03-01T06:28:21;27.40;;;15.73;;
47555;SDS011;33291;46.222;26.460;2023-03-01T06:30:47;25.08;;;14.25;;
47555;SDS011;33291;46.222;26.460;2023-03-01T06:33:13;27.13;;;15.38;;
47555;SDS011;33291;46.222;26.460;2023-03-01T06:35:39;32.95;;;16.55;;
47555;SDS011;33291;46.222;26.460;2023-03-01T06:38:04;32.03;;;17.00;;
47555;SDS011;33291;46.222;26.460;2023-03-01T06:40:31;29.55;;;15.90;;
47555;SDS011;33291;46.222;26.460;2023-03-01T06:42:56;35.10;;;18.92;;
47555;SDS011;33291;46.222;26.460;2023-03-01T06:45:23;38.03;;;18.60;;
47555;SDS011;33291;46.222;26.460;2023-03-01T06:47:49;30.15;;;16.17;;
47555;SDS011;33291;46.222;26.460;2023-03-01T06:50:15;35.60;;;17.55;;
47555;SDS011;33291;46.222;26.460;2023-03-01T06:52:41;38.70;;;20.08;;
47555;SDS011;33291;46.222;26.460;2023-03-01T06:55:09;31.73;;;17.60;;
47555;SDS011;33291;46.222;26.460;2023-03-01T06:57:35;36.30;;;17.75;;
47555;SDS011;33291;46.222;26.460;2023-03-01T07:00:02;34.47;;;15.55;;
47555;SDS011;33291;46.222;26.460;2023-03-01T07:02:30;23.27;;;13.27;;
47555;SDS011;33291;46.222;26.460;2023-03-01T07:04:56;26.23;;;11.85;;
47555;SDS011;33291;46.222;26.460;2023-03-01T07:07:22;20.55;;;11.27;;
47555;SDS011;33291;46.222;26.460;2023-03-01T07:09:48;23.80;;;11.40;;
47555;SDS011;33291;46.222;26.460;2023-03-01T07:12:14;23.63;;;12.98;;
47555;SDS011;33291;46.222;26.460;2023-03-01T07:14:39;22.38;;;12.57;;
47555;SDS011;33291;46.222;26.460;2023-03-01T07:17:05;28.40;;;13.68;;
47555;SDS011;33291;46.222;26.460;2023-03-01T07:19:31;32.75;;;14.13;;
47555;SDS011;33291;46.222;26.460;2023-03-01T07:21:57;25.65;;;12.82;;
47555;SDS011;33291;46.222;26.460;2023-03-01T07:24:22;27.05;;;13.85;;
47555;SDS011;33291;46.222;26.460;2023-03-01T07:26:48;28.70;;;13.63;;
47555;SDS011;33291;46.222;26.460;2023-03-01T07:29:15;27.73;;;13.13;;
47555;SDS011;33291;46.222;26.460;2023-03-01T07:31:41;25.27;;;13.43;;
47555;SDS011;33291;46.222;26.460;2023-03-01T07:34:06;24.08;;;13.55;;
47555;SDS011;33291;46.222;26.460;2023-03-01T07:36:32;27.38;;;13.25;;
47555;SDS011;33291;46.222;26.460;2023-03-01T07:38:57;29.77;;;13.63;;
47555;SDS011;33291;46.222;26.460;2023-03-01T07:41:23;27.05;;;13.18;;
47555;SDS011;33291;46.222;26.460;2023-03-01T07:43:48;25.05;;;12.45;;
47555;SDS011;33291;46.222;26.460;2023-03-01T07:46:14;25.25;;;13.43;;
47555;SDS011;33291;46.222;26.460;2023-03-01T07:48:40;29.85;;;12.68;;
47555;SDS011;33291;46.222;26.460;2023-03-01T07:51:05;25.00;;;13.35;;
47555;SDS011;33291;46.222;26.460;2023-03-01T07:53:31;30.40;;;12.32;;
47555;SDS011;33291;46.222;26.460;2023-03-01T07:58:38;22.75;;;11.60;;
47555;SDS011;33291;46.222;26.460;2023-03-01T08:01:06;25.60;;;12.50;;
47555;SDS011;33291;46.222;26.460;2023-03-01T08:03:33;22.48;;;11.93;;
47555;SDS011;33291;46.222;26.460;2023-03-01T08:06:00;25.30;;;12.27;;
47555;SDS011;33291;46.222;26.460;2023-03-01T08:08:27;26.42;;;13.30;;
47555;SDS011;33291;46.222;26.460;2023-03-01T08:10:55;21.45;;;11.40;;
47555;SDS011;33291;46.222;26.460;2023-03-01T08:13:22;20.00;;;11.18;;
47555;SDS011;33291;46.222;26.460;2023-03-01T08:15:48;19.27;;;10.43;;
47555;SDS011;33291;46.222;26.460;2023-03-01T08:18:14;24.85;;;10.85;;
47555;SDS011;33291;46.222;26.460;2023-03-01T08:20:40;25.85;;;11.15;;
47555;SDS011;33291;46.222;26.460;2023-03-01T08:23:06;22.38;;;11.02;;
47555;SDS011;33291;46.222;26.460;2023-03-01T08:25:31;22.65;;;11.93;;
47555;SDS011;33291;46.222;26.460;2023-03-01T08:27:56;30.85;;;13.32;;
47555;SDS011;33291;46.222;26.460;2023-03-01T08:30:22;26.58;;;13.85;;
47555;SDS011;33291;46.222;26.460;2023-03-01T08:32:49;24.20;;;12.75;;
47555;SDS011;33291;46.222;26.460;2023-03-01T08:35:15;21.00;;;11.30;;
47555;SDS011;33291;46.222;26.460;2023-03-01T08:37:40;20.75;;;11.60;;
47555;SDS011;33291;46.222;26.460;2023-03-01T08:40:06;18.40;;;10.52;;
47555;SDS011;33291;46.222;26.460;2023-03-01T08:42:32;18.85;;;11.02;;
47555;SDS011;33291;46.222;26.460;2023-03-01T08:44:58;15.77;;;9.68;;
47555;SDS011;33291;46.222;26.460;2023-03-01T08:47:23;16.63;;;10.00;;
47555;SDS011;33291;46.222;26.460;2023-03-01T08:49:49;14.30;;;8.63;;
47555;SDS011;33291;46.222;26.460;2023-03-01T08:52:15;17.67;;;9.02;;
47555;SDS011;33291;46.222;26.460;2023-03-01T08:54:40;13.98;;;7.93;;
47555;SDS011;33291;46.222;26.460;2023-03-01T08:57:06;14.15;;;8.00;;
47555;SDS011;33291;46.222;26.460;2023-03-01T08:59:31;10.77;;;6.43;;
47555;SDS011;33291;46.222;26.460;2023-03-01T09:02:02;11.05;;;6.13;;
47555;SDS011;33291;46.222;26.460;2023-03-01T09:04:28;11.75;;;6.05;;
47555;SDS011;33291;46.222;26.460;2023-03-01T09:06:54;19.83;;;6.93;;
47555;SDS011;33291;46.222;26.460;2023-03-01T09:09:20;10.23;;;5.30;;
47555;SDS011;33291;46.222;26.460;2023-03-01T09:11:45;9.88;;;5.93;;
47555;SDS011;33291;46.222;26.460;2023-03-01T09:14:12;8.35;;;5.47;;
47555;SDS011;33291;46.222;26.460;2023-03-01T09:16:38;11.05;;;6.32;;
47555;SDS011;33291;46.222;26.460;2023-03-01T09:19:04;12.68;;;6.90;;
47555;SDS011;33291;46.222;26.460;2023-03-01T09:21:30;9.93;;;5.53;;
47555;SDS011;33291;46.222;26.460;2023-03-01T09:23:56;14.50;;;6.75;;
47555;SDS011;33291;46.222;26.460;2023-03-01T09:26:23;12.65;;;6.95;;
47555;SDS011;33291;46.222;26.460;2023-03-01T09:28:50;11.40;;;6.68;;
47555;SDS011;33291;46.222;26.460;2023-03-01T09:31:17;10.88;;;6.15;;
47555;SDS011;33291;46.222;26.460;2023-03-01T09:33:48;13.05;;;6.53;;
47555;SDS011;33291;46.222;26.460;2023-03-01T09:36:16;9.63;;;6.05;;
47555;SDS011;33291;46.222;26.460;2023-03-01T09:38:43;16.00;;;6.07;;
47555;SDS011;33291;46.222;26.460;2023-03-01T09:43:57;14.13;;;6.05;;
47555;SDS011;33291;46.222;26.460;2023-03-01T09:46:28;13.00;;;6.72;;
47555;SDS011;33291;46.222;26.460;2023-03-01T09:48:58;22.85;;;12.18;;
47555;SDS011;33291;46.222;26.460;2023-03-01T09:51:37;10.35;;;5.80;;
47555;SDS011;33291;46.222;26.460;2023-03-01T09:54:03;14.65;;;7.22;;
47555;SDS011;33291;46.222;26.460;2023-03-01T10:09:43;12.10;;;6.50;;
47555;SDS011;33291;46.222;26.460;2023-03-01T10:12:22;10.55;;;6.20;;
47555;SDS011;33291;46.222;26.460;2023-03-01T10:17:50;12.50;;;7.53;;
47555;SDS011;33291;46.222;26.460;2023-03-01T10:22:51;17.38;;;9.30;;
47555;SDS011;33291;46.222;26.460;2023-03-01T10:25:31;16.83;;;8.55;;
47555;SDS011;33291;46.222;26.460;2023-03-01T10:30:49;21.23;;;9.55;;
47555;SDS011;33291;46.222;26.460;2023-03-01T10:35:43;12.73;;;7.85;;
47555;SDS011;33291;46.222;26.460;2023-03-01T10:38:10;14.75;;;9.05;;
47555;SDS011;33291;46.222;26.460;2023-03-01T10:40:49;19.40;;;9.45;;
47555;SDS011;33291;46.222;26.460;2023-03-01T10:43:15;22.05;;;10.05;;
47555;SDS011;33291;46.222;26.460;2023-03-01T10:45:40;31.10;;;11.52;;
47555;SDS011;33291;46.222;26.460;2023-03-01T10:50:48;18.83;;;10.38;;
47555;SDS011;33291;46.222;26.460;2023-03-01T10:53:27;19.77;;;11.57;;
47555;SDS011;33291;46.222;26.460;2023-03-01T10:56:14;19.60;;;12.40;;
47555;SDS011;33291;46.222;26.460;2023-03-01T11:01:29;21.65;;;12.10;;
47555;SDS011;33291;46.222;26.460;2023-03-01T11:06:28;25.27;;;13.95;;
47555;SDS011;33291;46.222;26.460;2023-03-01T11:08:54;25.92;;;13.13;;
47555;SDS011;33291;46.222;26.460;2023-03-01T11:11:40;21.65;;;13.18;;
47555;SDS011;33291;46.222;26.460;2023-03-01T11:14:21;24.08;;;13.00;;
47555;SDS011;33291;46.222;26.460;2023-03-01T11:16:49;23.30;;;12.75;;
47555;SDS011;33291;46.222;26.460;2023-03-01T11:19:31;24.77;;;13.57;;
47555;SDS011;33291;46.222;26.460;2023-03-01T11:30:05;25.00;;;14.02;;
47555;SDS011;33291;46.222;26.460;2023-03-01T11:35:32;25.63;;;13.90;;
47555;SDS011;33291;46.222;26.460;2023-03-01T11:40:46;27.40;;;14.85;;
47555;SDS011;33291;46.222;26.460;2023-03-01T12:02:53;25.27;;;13.70;;
47555;SDS011;33291;46.222;26.460;2023-03-01T12:08:32;22.10;;;12.65;;
47555;SDS011;33291;46.222;26.460;2023-03-01T12:19:24;24.97;;;12.73;;
47555;SDS011;33291;46.222;26.460;2023-03-01T12:22:17;27.75;;;13.75;;
47555;SDS011;33291;46.222;26.460;2023-03-01T12:42:17;22.17;;;11.90;;
47555;SDS011;33291;46.222;26.460;2023-03-01T12:45:22;18.65;;;11.57;;
47555;SDS011;33291;46.222;26.460;2023-03-01T12:50:41;21.00;;;11.90;;
47555;SDS011;33291;46.222;26.460;2023-03-01T12:56:00;23.95;;;12.23;;
47555;SDS011;33291;46.222;26.460;2023-03-01T13:01:35;23.85;;;12.70;;
47555;SDS011;33291;46.222;26.460;2023-03-01T13:09:20;23.58;;;12.70;;
47555;SDS011;33291;46.222;26.460;2023-03-01T13:11:48;21.70;;;11.52;;
47555;SDS011;33291;46.222;26.460;2023-03-01T13:16:45;21.92;;;11.27;;
47555;SDS011;33291;46.222;26.460;2023-03-01T13:19:21;20.92;;;11.93;;
47555;SDS011;33291;46.222;26.460;2023-03-01T13:21:49;23.40;;;13.65;;
47555;SDS011;33291;46.222;26.460;2023-03-01T13:29:47;22.85;;;11.88;;
47555;SDS011;33291;46.222;26.460;2023-03-01T13:32:28;38.88;;;18.17;;
47555;SDS011;33291;46.222;26.460;2023-03-01T13:34:58;21.83;;;12.70;;
47555;SDS011;33291;46.222;26.460;2023-03-01T13:37:31;27.90;;;13.13;;
47555;SDS011;33291;46.222;26.460;2023-03-01T13:39:59;30.98;;;17.65;;
47555;SDS011;33291;46.222;26.460;2023-03-01T13:42:34;23.13;;;12.07;;
47555;SDS011;33291;46.222;26.460;2023-03-01T13:45:01;24.65;;;11.27;;
47555;SDS011;33291;46.222;26.460;2023-03-01T13:47:28;30.83;;;15.93;;
47555;SDS011;33291;46.222;26.460;2023-03-01T13:49:58;27.88;;;16.17;;
47555;SDS011;33291;46.222;26.460;2023-03-01T13:55:27;22.35;;;12.98;;
47555;SDS011;33291;46.222;26.460;2023-03-01T13:58:00;24.58;;;12.95;;
47555;SDS011;33291;46.222;26.460;2023-03-01T14:00:30;24.10;;;13.65;;
47555;SDS011;33291;46.222;26.460;2023-03-01T14:03:01;20.75;;;12.52;;
47555;SDS011;33291;46.222;26.460;2023-03-01T14:05:29;23.00;;;13.05;;
47555;SDS011;33291;46.222;26.460;2023-03-01T14:07:55;23.02;;;13.27;;
47555;SDS011;33291;46.222;26.460;2023-03-01T14:10:21;22.15;;;12.70;;
47555;SDS011;33291;46.222;26.460;2023-03-01T14:15:57;31.58;;;14.98;;
47555;SDS011;33291;46.222;26.460;2023-03-01T14:21:32;20.83;;;12.00;;
47555;SDS011;33291;46.222;26.460;2023-03-01T14:23:58;21.30;;;11.68;;
47555;SDS011;33291;46.222;26.460;2023-03-01T14:26:24;24.10;;;13.25;;
47555;SDS011;33291;46.222;26.460;2023-03-01T14:28:50;25.25;;;12.40;;
47555;SDS011;33291;46.222;26.460;2023-03-01T14:31:29;21.20;;;12.63;;
47555;SDS011;33291;46.222;26.460;2023-03-01T14:34:04;34.47;;;14.07;;
47555;SDS011;33291;46.222;26.460;2023-03-01T14:36:30;25.35;;;13.43;;
47555;SDS011;33291;46.222;26.460;2023-03-01T14:38:57;22.85;;;12.93;;
47555;SDS011;33291;46.222;26.460;2023-03-01T14:41:31;21.77;;;12.15;;
47555;SDS011;33291;46.222;26.460;2023-03-01T14:44:01;26.95;;;12.88;;
47555;SDS011;33291;46.222;26.460;2023-03-01T14:49:09;25.35;;;13.02;;
47555;SDS011;33291;46.222;26.460;2023-03-01T14:51:53;22.77;;;12.80;;
47555;SDS011;33291;46.222;26.460;2023-03-01T14:57:26;23.80;;;11.93;;
47555;SDS011;33291;46.222;26.460;2023-03-01T14:59:52;27.35;;;12.85;;
47555;SDS011;33291;46.222;26.460;2023-03-01T15:02:21;24.02;;;12.52;;
47555;SDS011;33291;46.222;26.460;2023-03-01T15:04:52;22.67;;;13.60;;
47555;SDS011;33291;46.222;26.460;2023-03-01T15:07:26;24.02;;;12.00;;
47555;SDS011;33291;46.222;26.460;2023-03-01T15:09:56;24.48;;;13.25;;
47555;SDS011;33291;46.222;26.460;2023-03-01T15:14:57;24.65;;;13.27;;
47555;SDS011;33291;46.222;26.460;2023-03-01T15:17:26;21.15;;;12.38;;
47555;SDS011;33291;46.222;26.460;2023-03-01T15:19:57;29.40;;;14.95;;
47555;SDS011;33291;46.222;26.460;2023-03-01T15:22:25;28.38;;;14.73;;
47555;SDS011;33291;46.222;26.460;2023-03-01T15:24:51;27.98;;;16.52;;
47555;SDS011;33291;46.222;26.460;2023-03-01T15:27:19;35.58;;;21.15;;
47555;SDS011;33291;46.222;26.460;2023-03-01T15:29:51;27.70;;;15.82;;
47555;SDS011;33291;46.222;26.460;2023-03-01T15:32:29;32.33;;;18.10;;
47555;SDS011;33291;46.222;26.460;2023-03-01T15:35:00;31.35;;;16.08;;
47555;SDS011;33291;46.222;26.460;2023-03-01T15:37:47;47.90;;;22.70;;
47555;SDS011;33291;46.222;26.460;2023-03-01T15:40:24;46.80;;;23.17;;
47555;SDS011;33291;46.222;26.460;2023-03-01T15:42:57;51.88;;;27.02;;
47555;SDS011;33291;46.222;26.460;2023-03-01T15:45:28;70.85;;;36.63;;
47555;SDS011;33291;46.222;26.460;2023-03-01T15:47:58;54.72;;;28.52;;
47555;SDS011;33291;46.222;26.460;2023-03-01T15:50:33;41.95;;;20.52;;
47555;SDS011;33291;46.222;26.460;2023-03-01T15:53:04;41.67;;;20.77;;
47555;SDS011;33291;46.222;26.460;2023-03-01T15:55:32;49.00;;;21.70;;
47555;SDS011;33291;46.222;26.460;2023-03-01T16:00:51;50.38;;;25.80;;
47555;SDS011;33291;46.222;26.460;2023-03-01T16:03:21;42.70;;;24.13;;
47555;SDS011;33291;46.222;26.460;2023-03-01T16:05:47;40.50;;;22.02;;
47555;SDS011;33291;46.222;26.460;2023-03-01T16:08:15;40.97;;;22.70;;
47555;SDS011;33291;46.222;26.460;2023-03-01T16:10:41;44.58;;;22.88;;
47555;SDS011;33291;46.222;26.460;2023-03-01T16:13:10;42.30;;;22.30;;
47555;SDS011;33291;46.222;26.460;2023-03-01T16:15:36;40.08;;;22.17;;
47555;SDS011;33291;46.222;26.460;2023-03-01T16:18:02;41.15;;;22.65;;
47555;SDS011;33291;46.222;26.460;2023-03-01T16:20:30;38.30;;;21.73;;
47555;SDS011;33291;46.222;26.460;2023-03-01T16:23:04;42.70;;;23.67;;
47555;SDS011;33291;46.222;26.460;2023-03-01T16:25:31;37.83;;;22.15;;
47555;SDS011;33291;46.222;26.460;2023-03-01T16:27:58;39.85;;;20.85;;
47555;SDS011;33291;46.222;26.460;2023-03-01T16:30:26;41.15;;;22.27;;
47555;SDS011;33291;46.222;26.460;2023-03-01T16:32:51;43.10;;;25.00;;
47555;SDS011;33291;46.222;26.460;2023-03-01T16:35:18;43.08;;;24.13;;
47555;SDS011;33291;46.222;26.460;2023-03-01T16:37:45;42.53;;;25.08;;
47555;SDS011;33291;46.222;26.460;2023-03-01T16:40:21;49.45;;;27.88;;
47555;SDS011;33291;46.222;26.460;2023-03-01T16:42:50;36.42;;;21.90;;
47555;SDS011;33291;46.222;26.460;2023-03-01T16:45:17;47.10;;;27.67;;
47555;SDS011;33291;46.222;26.460;2023-03-01T16:47:42;49.58;;;27.80;;
47555;SDS011;33291;46.222;26.460;2023-03-01T16:50:08;46.10;;;26.65;;
47555;SDS011;33291;46.222;26.460;2023-03-01T16:52:34;30.75;;;18.65;;
47555;SDS011;33291;46.222;26.460;2023-03-01T16:54:59;41.83;;;25.38;;
47555;SDS011;33291;46.222;26.460;2023-03-01T16:57:25;49.72;;;28.88;;